sensor_id;sensor_type;location;lat;lon;timestamp;pressure;altitude;pressure_sealevel;temperature;humidity
43804;BME280;29430;52.924;-2.388;2023-01-26T00:03:03;100762.59;;;3.49;100.00
43804;BME280;29430;52.924;-2.388;2023-01-26T00:07:56;100754.25;;;3.52;100.00
43804;BME280;29430;52.924;-2.388;2023-01-26T00:12:48;100758.91;;;3.50;100.00
43804;BME280;29430;52.924;-2.388;2023-01-26T00:17:40;100741.13;;;3.49;100.00
43804;BME280;29430;52.924;-2.388;2023-01-26T00:22:32;100752.16;;;3.46;100.00
43804;BME280;29430;52.924;-2.388;2023-01-26T00:27:23;100740.16;;;3.40;100.00
43804;BME280;29430;52.924;-2.388;2023-01-26T00:32:16;100751.88;;;3.39;100.00
43804;BME280;29430;52.924;-2.388;2023-01-26T00:37:08;100745.81;;;3.37;100.00
43804;BME280;29430;52.924;-2.388;2023-01-26T00:41:59;100759.78;;;3.41;100.00
43804;BME280;29430;52.924;-2.388;2023-01-26T00:46:57;100743.84;;;3.39;100.00
43804;BME280;29430;52.924;-2.388;2023-01-26T00:51:49;100746.13;;;3.34;100.00
43804;BME280;29430;52.924;-2.388;2023-01-26T00:56:41;100756.56;;;3.37;100.00
43804;BME280;29430;52.924;-2.388;2023-01-26T01:01:33;100754.69;;;3.38;100.00
43804;BME280;29430;52.924;-2.388;2023-01-26T01:06:25;100749.63;;;3.35;100.00
43804;BME280;29430;52.924;-2.388;2023-01-26T01:11:17;100752.47;;;3.33;100.00
43804;BME280;29430;52.924;-2.388;2023-01-26T01:16:11;100749.78;;;3.33;100.00
43804;BME280;29430;52.924;-2.388;2023-01-26T01:21:09;100756.97;;;3.33;100.00
43804;BME280;29430;52.924;-2.388;2023-01-26T01:26:03;100759.53;;;3.34;100.00
43804;BME280;29430;52.924;-2.388;2023-01-26T01:30:55;100764.19;;;3.32;100.00
43804;BME280;29430;52.924;-2.388;2023-01-26T01:36:01;100765.47;;;3.28;100.00
43804;BME280;29430;52.924;-2.388;2023-01-26T01:40:55;100769.69;;;3.31;100.00
43804;BME280;29430;52.924;-2.388;2023-01-26T01:45:48;100773.06;;;3.33;100.00
43804;BME280;29430;52.924;-2.388;2023-01-26T01:50:40;100781.13;;;3.33;100.00
43804;BME280;29430;52.924;-2.388;2023-01-26T01:55:33;100759.97;;;3.30;100.00
43804;BME280;29430;52.924;-2.388;2023-01-26T02:00:25;100768.53;;;3.33;100.00
43804;BME280;29430;52.924;-2.388;2023-01-26T02:05:26;100769.41;;;3.34;100.00
43804;BME280;29430;52.924;-2.388;2023-01-26T02:10:20;100779.41;;;3.32;100.00
43804;BME280;29430;52.924;-2.388;2023-01-26T02:15:13;100777.31;;;3.35;100.00
43804;BME280;29430;52.924;-2.388;2023-01-26T02:25:10;100779.28;;;3.33;100.00
43804;BME280;29430;52.924;-2.388;2023-01-26T02:30:05;100782.69;;;3.35;100.00
43804;BME280;29430;52.924;-2.388;2023-01-26T02:34:57;100775.03;;;3.40;100.00
43804;BME280;29430;52.924;-2.388;2023-01-26T02:39:54;100780.41;;;3.40;100.00
43804;BME280;29430;52.924;-2.388;2023-01-26T02:44:47;100775.03;;;3.40;100.00
43804;BME280;29430;52.924;-2.388;2023-01-26T02:49:39;100784.78;;;3.42;100.00
43804;BME280;29430;52.924;-2.388;2023-01-26T02:54:41;100778.16;;;3.36;100.00
43804;BME280;29430;52.924;-2.388;2023-01-26T02:59:51;100794.53;;;3.33;100.00
43804;BME280;29430;52.924;-2.388;2023-01-26T03:04:43;100820.38;;;3.34;100.00
43804;BME280;29430;52.924;-2.388;2023-01-26T03:09:35;100812.88;;;3.28;100.00
43804;BME280;29430;52.924;-2.388;2023-01-26T03:14:27;100793.81;;;3.21;100.00
43804;BME280;29430;52.924;-2.388;2023-01-26T03:19:19;100793.69;;;3.22;100.00
43804;BME280;29430;52.924;-2.388;2023-01-26T03:24:29;100810.63;;;3.23;100.00
43804;BME280;29430;52.924;-2.388;2023-01-26T03:29:39;100807.22;;;3.21;100.00
43804;BME280;29430;52.924;-2.388;2023-01-26T03:34:31;100824.59;;;3.17;100.00
43804;BME280;29430;52.924;-2.388;2023-01-26T03:39:23;100812.19;;;3.16;100.00
43804;BME280;29430;52.924;-2.388;2023-01-26T03:44:34;100816.28;;;3.10;100.00
43804;BME280;29430;52.924;-2.388;2023-01-26T03:49:44;100828.44;;;3.04;100.00
43804;BME280;29430;52.924;-2.388;2023-01-26T03:54:55;100823.22;;;3.03;100.00
43804;BME280;29430;52.924;-2.388;2023-01-26T04:00:05;100822.22;;;2.94;100.00
43804;BME280;29430;52.924;-2.388;2023-01-26T04:04:57;100813.63;;;2.91;100.00
43804;BME280;29430;52.924;-2.388;2023-01-26T04:10:09;100817.13;;;2.91;100.00
43804;BME280;29430;52.924;-2.388;2023-01-26T04:15:02;100821.66;;;2.91;100.00
43804;BME280;29430;52.924;-2.388;2023-01-26T04:20:12;100835.47;;;2.86;100.00
43804;BME280;29430;52.924;-2.388;2023-01-26T04:25:23;100842.50;;;2.77;100.00
43804;BME280;29430;52.924;-2.388;2023-01-26T04:30:16;100846.72;;;2.70;100.00
43804;BME280;29430;52.924;-2.388;2023-01-26T04:35:09;100834.31;;;2.69;100.00
43804;BME280;29430;52.924;-2.388;2023-01-26T04:40:01;100849.81;;;2.65;100.00
43804;BME280;29430;52.924;-2.388;2023-01-26T04:44:54;100844.59;;;2.64;100.00
43804;BME280;29430;52.924;-2.388;2023-01-26T04:49:46;100856.16;;;2.64;100.00
43804;BME280;29430;52.924;-2.388;2023-01-26T04:54:39;100849.25;;;2.62;100.00
43804;BME280;29430;52.924;-2.388;2023-01-26T04:59:31;100845.28;;;2.56;100.00
43804;BME280;29430;52.924;-2.388;2023-01-26T05:04:23;100854.44;;;2.54;100.00
43804;BME280;29430;52.924;-2.388;2023-01-26T05:09:15;100858.25;;;2.51;100.00
43804;BME280;29430;52.924;-2.388;2023-01-26T05:14:06;100866.28;;;2.51;100.00
43804;BME280;29430;52.924;-2.388;2023-01-26T05:18:58;100869.50;;;2.45;100.00
43804;BME280;29430;52.924;-2.388;2023-01-26T05:23:50;100860.50;;;2.46;100.00
43804;BME280;29430;52.924;-2.388;2023-01-26T05:28:42;100869.09;;;2.49;100.00
43804;BME280;29430;52.924;-2.388;2023-01-26T05:33:34;100875.56;;;2.47;100.00
43804;BME280;29430;52.924;-2.388;2023-01-26T05:38:25;100867.78;;;2.44;100.00
43804;BME280;29430;52.924;-2.388;2023-01-26T05:43:17;100875.41;;;2.48;100.00
43804;BME280;29430;52.924;-2.388;2023-01-26T05:48:09;100881.78;;;2.57;100.00
43804;BME280;29430;52.924;-2.388;2023-01-26T05:53:01;100886.19;;;2.58;100.00
43804;BME280;29430;52.924;-2.388;2023-01-26T05:57:53;100889.69;;;2.59;100.00
43804;BME280;29430;52.924;-2.388;2023-01-26T06:02:45;100908.16;;;2.62;100.00
43804;BME280;29430;52.924;-2.388;2023-01-26T06:07:39;100898.28;;;2.62;100.00
43804;BME280;29430;52.924;-2.388;2023-01-26T06:12:31;100894.63;;;2.63;100.00
43804;BME280;29430;52.924;-2.388;2023-01-26T06:17:26;100908.16;;;2.62;100.00
43804;BME280;29430;52.924;-2.388;2023-01-26T06:22:17;100899.56;;;2.58;100.00
43804;BME280;29430;52.924;-2.388;2023-01-26T06:27:14;100911.13;;;2.59;100.00
43804;BME280;29430;52.924;-2.388;2023-01-26T06:32:06;100917.44;;;2.58;100.00
43804;BME280;29430;52.924;-2.388;2023-01-26T06:36:58;100910.41;;;2.57;100.00
43804;BME280;29430;52.924;-2.388;2023-01-26T06:41:50;100902.53;;;2.55;100.00
43804;BME280;29430;52.924;-2.388;2023-01-26T06:46:41;100897.88;;;2.57;100.00
43804;BME280;29430;52.924;-2.388;2023-01-26T06:57:11;100904.06;;;2.58;100.00
43804;BME280;29430;52.924;-2.388;2023-01-26T07:02:03;100905.75;;;2.59;100.00
43804;BME280;29430;52.924;-2.388;2023-01-26T07:06:55;100912.38;;;2.55;100.00
43804;BME280;29430;52.924;-2.388;2023-01-26T07:11:48;100908.44;;;2.59;100.00
43804;BME280;29430;52.924;-2.388;2023-01-26T07:16:39;100911.25;;;2.57;100.00
43804;BME280;29430;52.924;-2.388;2023-01-26T07:21:31;100918.88;;;2.62;100.00
43804;BME280;29430;52.924;-2.388;2023-01-26T07:26:25;100910.84;;;2.62;100.00
43804;BME280;29430;52.924;-2.388;2023-01-26T07:31:18;100922.72;;;2.69;100.00
43804;BME280;29430;52.924;-2.388;2023-01-26T07:36:10;100915.09;;;2.74;100.00
43804;BME280;29430;52.924;-2.388;2023-01-26T07:41:08;100922.03;;;2.77;100.00
43804;BME280;29430;52.924;-2.388;2023-01-26T07:46:02;100938.69;;;2.80;100.00
43804;BME280;29430;52.924;-2.388;2023-01-26T07:50:57;100958.13;;;2.82;100.00
43804;BME280;29430;52.924;-2.388;2023-01-26T07:55:50;100963.22;;;2.85;100.00
43804;BME280;29430;52.924;-2.388;2023-01-26T08:00:42;100964.78;;;2.88;100.00
43804;BME280;29430;52.924;-2.388;2023-01-26T08:05:37;100958.19;;;2.92;100.00
43804;BME280;29430;52.924;-2.388;2023-01-26T08:10:30;100962.53;;;2.93;100.00
43804;BME280;29430;52.924;-2.388;2023-01-26T08:15:22;100975.38;;;2.90;100.00
43804;BME280;29430;52.924;-2.388;2023-01-26T08:20:14;100988.63;;;2.91;100.00
43804;BME280;29430;52.924;-2.388;2023-01-26T08:25:06;100991.88;;;2.95;100.00
43804;BME280;29430;52.924;-2.388;2023-01-26T08:29:59;100990.47;;;2.91;100.00
43804;BME280;29430;52.924;-2.388;2023-01-26T08:34:50;100986.78;;;2.92;100.00
43804;BME280;29430;52.924;-2.388;2023-01-26T08:39:42;100984.38;;;2.89;100.00
43804;BME280;29430;52.924;-2.388;2023-01-26T08:44:34;100982.44;;;2.91;100.00
43804;BME280;29430;52.924;-2.388;2023-01-26T08:49:26;100985.13;;;2.91;100.00
43804;BME280;29430;52.924;-2.388;2023-01-26T08:54:18;100993.16;;;2.91;100.00
43804;BME280;29430;52.924;-2.388;2023-01-26T08:59:09;101013.19;;;2.96;100.00
43804;BME280;29430;52.924;-2.388;2023-01-26T09:04:01;101010.09;;;3.01;100.00
43804;BME280;29430;52.924;-2.388;2023-01-26T09:08:53;101009.69;;;3.05;100.00
43804;BME280;29430;52.924;-2.388;2023-01-26T09:13:51;101006.31;;;3.13;100.00
43804;BME280;29430;52.924;-2.388;2023-01-26T09:18:50;101002.25;;;3.19;100.00
43804;BME280;29430;52.924;-2.388;2023-01-26T09:23:41;101003.69;;;3.23;100.00
43804;BME280;29430;52.924;-2.388;2023-01-26T09:28:33;101013.44;;;3.34;100.00
43804;BME280;29430;52.924;-2.388;2023-01-26T09:33:25;101005.09;;;3.37;100.00
43804;BME280;29430;52.924;-2.388;2023-01-26T09:38:17;101008.34;;;3.50;100.00
43804;BME280;29430;52.924;-2.388;2023-01-26T09:43:21;101004.69;;;3.81;100.00
43804;BME280;29430;52.924;-2.388;2023-01-26T09:48:29;101001.53;;;4.34;100.00
43804;BME280;29430;52.924;-2.388;2023-01-26T09:58:39;101015.06;;;5.71;99.12
43804;BME280;29430;52.924;-2.388;2023-01-26T10:04:12;101029.00;;;6.21;93.74
43804;BME280;29430;52.924;-2.388;2023-01-26T10:09:13;101029.31;;;6.70;92.76
43804;BME280;29430;52.924;-2.388;2023-01-26T10:14:18;101023.94;;;7.05;90.60
43804;BME280;29430;52.924;-2.388;2023-01-26T10:19:34;101031.38;;;7.70;91.47
43804;BME280;29430;52.924;-2.388;2023-01-26T10:24:28;101029.03;;;8.33;86.59
43804;BME280;29430;52.924;-2.388;2023-01-26T10:29:21;101040.16;;;8.63;83.06
43804;BME280;29430;52.924;-2.388;2023-01-26T10:34:16;101046.38;;;8.80;77.25
43804;BME280;29430;52.924;-2.388;2023-01-26T10:39:10;101059.66;;;9.06;80.08
43804;BME280;29430;52.924;-2.388;2023-01-26T10:59:17;101056.28;;;9.98;75.11
43804;BME280;29430;52.924;-2.388;2023-01-26T11:04:14;101054.34;;;10.07;71.86
43804;BME280;29430;52.924;-2.388;2023-01-26T11:14:24;101055.47;;;10.59;72.96
43804;BME280;29430;52.924;-2.388;2023-01-26T11:50:34;101018.88;;;10.16;71.33
43804;BME280;29430;52.924;-2.388;2023-01-26T11:55:52;101006.25;;;10.24;69.15
43804;BME280;29430;52.924;-2.388;2023-01-26T12:00:58;101017.88;;;10.32;69.15
43804;BME280;29430;52.924;-2.388;2023-01-26T12:05:59;101005.69;;;10.36;69.70
43804;BME280;29430;52.924;-2.388;2023-01-26T12:16:17;101008.41;;;10.28;69.02
43804;BME280;29430;52.924;-2.388;2023-01-26T12:21:13;101016.97;;;10.55;71.12
43804;BME280;29430;52.924;-2.388;2023-01-26T12:26:10;101008.38;;;10.81;69.66
43804;BME280;29430;52.924;-2.388;2023-01-26T12:31:28;101003.50;;;10.47;66.61
43804;BME280;29430;52.924;-2.388;2023-01-26T12:41:34;100975.34;;;9.95;67.86
43804;BME280;29430;52.924;-2.388;2023-01-26T12:46:32;100985.56;;;10.08;69.19
43804;BME280;29430;52.924;-2.388;2023-01-26T12:51:30;100970.50;;;10.05;68.69
43804;BME280;29430;52.924;-2.388;2023-01-26T12:56:29;100974.06;;;10.06;69.44
43804;BME280;29430;52.924;-2.388;2023-01-26T13:01:24;100971.59;;;9.96;67.98
43804;BME280;29430;52.924;-2.388;2023-01-26T13:06:19;100958.66;;;9.83;68.70
43804;BME280;29430;52.924;-2.388;2023-01-26T13:11:41;100965.06;;;9.67;69.12
43804;BME280;29430;52.924;-2.388;2023-01-26T13:16:34;100958.13;;;9.64;70.64
43804;BME280;29430;52.924;-2.388;2023-01-26T13:21:42;100946.47;;;9.64;69.68
43804;BME280;29430;52.924;-2.388;2023-01-26T13:26:43;100957.59;;;9.46;71.03
43804;BME280;29430;52.924;-2.388;2023-01-26T13:31:35;100956.63;;;9.39;72.11
43804;BME280;29430;52.924;-2.388;2023-01-26T13:36:32;100972.56;;;9.34;70.40
43804;BME280;29430;52.924;-2.388;2023-01-26T13:41:25;100965.81;;;9.29;71.47
43804;BME280;29430;52.924;-2.388;2023-01-26T13:51:19;100971.97;;;8.84;70.73
43804;BME280;29430;52.924;-2.388;2023-01-26T13:56:22;100966.94;;;8.72;72.68
43804;BME280;29430;52.924;-2.388;2023-01-26T14:01:15;100973.22;;;8.65;73.35
43804;BME280;29430;52.924;-2.388;2023-01-26T14:06:14;100977.13;;;8.54;73.65
43804;BME280;29430;52.924;-2.388;2023-01-26T14:11:16;100977.31;;;8.52;73.44
43804;BME280;29430;52.924;-2.388;2023-01-26T14:16:28;100968.72;;;8.40;73.98
43804;BME280;29430;52.924;-2.388;2023-01-26T14:21:21;100974.09;;;8.32;73.91
43804;BME280;29430;52.924;-2.388;2023-01-26T14:26:33;100983.09;;;8.16;74.24
43804;BME280;29430;52.924;-2.388;2023-01-26T14:31:26;100996.44;;;8.10;74.58
43804;BME280;29430;52.924;-2.388;2023-01-26T14:36:20;100987.50;;;8.01;74.69
43804;BME280;29430;52.924;-2.388;2023-01-26T14:46:16;100995.28;;;7.96;75.71
43804;BME280;29430;52.924;-2.388;2023-01-26T14:51:17;100996.63;;;7.92;75.87
43804;BME280;29430;52.924;-2.388;2023-01-26T14:56:18;100997.28;;;7.85;74.94
43804;BME280;29430;52.924;-2.388;2023-01-26T15:01:19;101012.63;;;7.77;74.59
43804;BME280;29430;52.924;-2.388;2023-01-26T15:11:05;101000.31;;;7.66;75.36
43804;BME280;29430;52.924;-2.388;2023-01-26T15:16:20;100989.34;;;7.59;75.82
43804;BME280;29430;52.924;-2.388;2023-01-26T15:21:20;100997.09;;;7.54;75.69
43804;BME280;29430;52.924;-2.388;2023-01-26T15:31:21;100993.19;;;7.48;76.48
43804;BME280;29430;52.924;-2.388;2023-01-26T15:36:29;100978.34;;;7.44;76.94
43804;BME280;29430;52.924;-2.388;2023-01-26T15:41:22;100975.97;;;7.33;76.87
43804;BME280;29430;52.924;-2.388;2023-01-26T15:46:14;100976.63;;;7.35;77.98
43804;BME280;29430;52.924;-2.388;2023-01-26T15:51:13;100978.50;;;7.34;77.74
43804;BME280;29430;52.924;-2.388;2023-01-26T15:56:07;100968.88;;;7.32;77.29
43804;BME280;29430;52.924;-2.388;2023-01-26T16:01:00;100967.88;;;7.33;77.54
43804;BME280;29430;52.924;-2.388;2023-01-26T16:05:52;100959.44;;;7.28;76.54
43804;BME280;29430;52.924;-2.388;2023-01-26T16:10:45;100965.81;;;7.19;77.91
43804;BME280;29430;52.924;-2.388;2023-01-26T16:15:48;100967.81;;;7.16;77.33
43804;BME280;29430;52.924;-2.388;2023-01-26T16:20:42;100965.78;;;7.10;77.27
43804;BME280;29430;52.924;-2.388;2023-01-26T16:25:35;100958.16;;;7.06;77.93
43804;BME280;29430;52.924;-2.388;2023-01-26T16:30:27;100952.59;;;6.99;77.83
43804;BME280;29430;52.924;-2.388;2023-01-26T16:35:21;100964.38;;;6.98;78.35
43804;BME280;29430;52.924;-2.388;2023-01-26T16:40:15;100958.47;;;6.94;78.36
43804;BME280;29430;52.924;-2.388;2023-01-26T16:45:22;100960.34;;;6.94;78.86
43804;BME280;29430;52.924;-2.388;2023-01-26T16:50:17;100962.50;;;6.90;77.95
43804;BME280;29430;52.924;-2.388;2023-01-26T16:55:11;100961.47;;;6.83;78.00
43804;BME280;29430;52.924;-2.388;2023-01-26T17:00:05;100969.03;;;6.79;78.42
43804;BME280;29430;52.924;-2.388;2023-01-26T17:04:57;100971.06;;;6.77;77.83
43804;BME280;29430;52.924;-2.388;2023-01-26T17:09:49;100976.09;;;6.72;77.82
43804;BME280;29430;52.924;-2.388;2023-01-26T17:14:41;100971.03;;;6.69;78.24
43804;BME280;29430;52.924;-2.388;2023-01-26T17:19:33;100977.25;;;6.70;78.45
43804;BME280;29430;52.924;-2.388;2023-01-26T17:24:25;100989.03;;;6.69;78.19
43804;BME280;29430;52.924;-2.388;2023-01-26T17:29:17;100992.91;;;6.66;78.37
43804;BME280;29430;52.924;-2.388;2023-01-26T17:34:08;101003.47;;;6.59;77.84
43804;BME280;29430;52.924;-2.388;2023-01-26T17:39:00;101007.84;;;6.52;77.60
43804;BME280;29430;52.924;-2.388;2023-01-26T17:43:52;101001.69;;;6.42;79.79
43804;BME280;29430;52.924;-2.388;2023-01-26T17:48:45;101013.16;;;6.44;78.97
43804;BME280;29430;52.924;-2.388;2023-01-26T17:53:38;101003.16;;;6.36;79.73
43804;BME280;29430;52.924;-2.388;2023-01-26T17:58:31;100999.44;;;6.29;80.16
43804;BME280;29430;52.924;-2.388;2023-01-26T18:03:23;101003.81;;;6.30;80.38
43804;BME280;29430;52.924;-2.388;2023-01-26T18:08:16;100993.03;;;6.30;80.68
43804;BME280;29430;52.924;-2.388;2023-01-26T18:13:08;100989.97;;;6.25;80.90
43804;BME280;29430;52.924;-2.388;2023-01-26T18:18:00;100981.22;;;6.23;81.16
43804;BME280;29430;52.924;-2.388;2023-01-26T18:22:52;100970.59;;;6.21;81.50
43804;BME280;29430;52.924;-2.388;2023-01-26T18:27:44;100961.63;;;6.21;81.85
43804;BME280;29430;52.924;-2.388;2023-01-26T18:32:36;100959.25;;;6.18;81.90
43804;BME280;29430;52.924;-2.388;2023-01-26T18:37:29;100959.09;;;6.19;82.30
43804;BME280;29430;52.924;-2.388;2023-01-26T18:42:23;100946.50;;;6.20;82.46
43804;BME280;29430;52.924;-2.388;2023-01-26T18:47:15;100944.81;;;6.19;82.36
43804;BME280;29430;52.924;-2.388;2023-01-26T18:52:06;100942.44;;;6.16;82.36
43804;BME280;29430;52.924;-2.388;2023-01-26T18:56:58;100937.00;;;6.07;82.35
43804;BME280;29430;52.924;-2.388;2023-01-26T19:01:50;100936.28;;;6.05;82.44
43804;BME280;29430;52.924;-2.388;2023-01-26T19:06:42;100938.66;;;6.08;82.54
43804;BME280;29430;52.924;-2.388;2023-01-26T19:11:36;100935.81;;;6.10;83.45
43804;BME280;29430;52.924;-2.388;2023-01-26T19:16:29;100944.75;;;6.11;82.20
43804;BME280;29430;52.924;-2.388;2023-01-26T19:21:23;100956.47;;;6.01;82.91
43804;BME280;29430;52.924;-2.388;2023-01-26T19:26:21;100959.53;;;6.06;84.02
43804;BME280;29430;52.924;-2.388;2023-01-26T19:31:13;100978.22;;;6.08;83.82
43804;BME280;29430;52.924;-2.388;2023-01-26T19:36:08;100976.06;;;6.12;83.37
43804;BME280;29430;52.924;-2.388;2023-01-26T19:41:00;100977.41;;;6.07;82.75
43804;BME280;29430;52.924;-2.388;2023-01-26T19:45:54;100982.22;;;6.04;83.48
43804;BME280;29430;52.924;-2.388;2023-01-26T19:51:29;100983.41;;;6.01;83.63
43804;BME280;29430;52.924;-2.388;2023-01-26T19:56:19;100995.09;;;5.92;83.29
43804;BME280;29430;52.924;-2.388;2023-01-26T20:01:11;100994.00;;;5.85;83.86
43804;BME280;29430;52.924;-2.388;2023-01-26T20:06:04;100988.94;;;5.82;84.11
43804;BME280;29430;52.924;-2.388;2023-01-26T20:11:04;100994.69;;;5.87;84.39
43804;BME280;29430;52.924;-2.388;2023-01-26T20:15:56;101002.91;;;5.85;83.73
43804;BME280;29430;52.924;-2.388;2023-01-26T20:20:52;101001.78;;;5.88;84.06
43804;BME280;29430;52.924;-2.388;2023-01-26T20:25:45;101001.09;;;5.86;83.82
43804;BME280;29430;52.924;-2.388;2023-01-26T20:30:37;101010.31;;;5.83;83.69
43804;BME280;29430;52.924;-2.388;2023-01-26T20:35:29;101007.09;;;5.80;84.74
43804;BME280;29430;52.924;-2.388;2023-01-26T20:40:21;101003.38;;;5.81;84.41
43804;BME280;29430;52.924;-2.388;2023-01-26T20:45:13;101000.69;;;5.81;84.37
43804;BME280;29430;52.924;-2.388;2023-01-26T20:50:11;100994.31;;;5.82;84.58
43804;BME280;29430;52.924;-2.388;2023-01-26T20:55:04;100985.25;;;5.83;83.52
43804;BME280;29430;52.924;-2.388;2023-01-26T20:59:58;100987.22;;;5.81;83.49
43804;BME280;29430;52.924;-2.388;2023-01-26T21:04:50;100979.31;;;5.79;83.50
43804;BME280;29430;52.924;-2.388;2023-01-26T21:09:44;100989.09;;;5.80;82.74
43804;BME280;29430;52.924;-2.388;2023-01-26T21:14:36;100986.25;;;5.82;82.53
43804;BME280;29430;52.924;-2.388;2023-01-26T21:19:28;100982.41;;;5.84;83.04
43804;BME280;29430;52.924;-2.388;2023-01-26T21:24:20;100985.78;;;5.86;82.32
43804;BME280;29430;52.924;-2.388;2023-01-26T21:29:14;100993.16;;;5.84;82.01
43804;BME280;29430;52.924;-2.388;2023-01-26T21:34:07;100983.03;;;5.78;81.52
43804;BME280;29430;52.924;-2.388;2023-01-26T21:39:00;100984.00;;;5.77;81.78
43804;BME280;29430;52.924;-2.388;2023-01-26T21:44:04;100999.69;;;5.82;82.24
43804;BME280;29430;52.924;-2.388;2023-01-26T21:48:56;100986.84;;;5.76;80.93
43804;BME280;29430;52.924;-2.388;2023-01-26T21:53:48;101004.94;;;5.65;80.75
43804;BME280;29430;52.924;-2.388;2023-01-26T21:58:40;100998.22;;;5.51;81.55
43804;BME280;29430;52.924;-2.388;2023-01-26T22:03:44;100993.91;;;5.41;82.75
43804;BME280;29430;52.924;-2.388;2023-01-26T22:08:36;100990.47;;;5.30;82.24
43804;BME280;29430;52.924;-2.388;2023-01-26T22:13:28;100988.22;;;5.26;82.80
43804;BME280;29430;52.924;-2.388;2023-01-26T22:18:21;100993.84;;;5.14;83.61
43804;BME280;29430;52.924;-2.388;2023-01-26T22:23:13;100971.91;;;5.09;83.83
43804;BME280;29430;52.924;-2.388;2023-01-26T22:28:07;100981.16;;;5.07;84.10
43804;BME280;29430;52.924;-2.388;2023-01-26T22:32:59;100978.44;;;5.07;83.80
43804;BME280;29430;52.924;-2.388;2023-01-26T22:37:51;100969.81;;;5.03;83.64
43804;BME280;29430;52.924;-2.388;2023-01-26T22:42:47;100974.66;;;4.99;83.94
43804;BME280;29430;52.924;-2.388;2023-01-26T22:47:41;100972.28;;;4.96;84.39
43804;BME280;29430;52.924;-2.388;2023-01-26T22:52:33;100972.03;;;4.90;84.47
43804;BME280;29430;52.924;-2.388;2023-01-26T22:57:25;100967.78;;;4.87;84.31
43804;BME280;29430;52.924;-2.388;2023-01-26T23:02:17;100962.41;;;4.87;84.94
43804;BME280;29430;52.924;-2.388;2023-01-26T23:07:09;100949.66;;;4.89;84.43
43804;BME280;29430;52.924;-2.388;2023-01-26T23:12:04;100960.72;;;4.86;84.69
43804;BME280;29430;52.924;-2.388;2023-01-26T23:16:57;100947.28;;;4.86;84.61
43804;BME280;29430;52.924;-2.388;2023-01-26T23:21:49;100940.75;;;4.89;84.23
43804;BME280;29430;52.924;-2.388;2023-01-26T23:26:41;100933.53;;;4.89;83.78
43804;BME280;29430;52.924;-2.388;2023-01-26T23:31:33;100941.59;;;4.89;83.69
43804;BME280;29430;52.924;-2.388;2023-01-26T23:36:25;100931.28;;;4.84;83.73
43804;BME280;29430;52.924;-2.388;2023-01-26T23:41:19;100927.09;;;4.82;83.54
43804;BME280;29430;52.924;-2.388;2023-01-26T23:46:12;100918.88;;;4.83;83.31
43804;BME280;29430;52.924;-2.388;2023-01-26T23:51:09;100919.63;;;4.76;83.65
43804;BME280;29430;52.924;-2.388;2023-01-26T23:56:08;100928.00;;;4.63;82.95
